Time;durP1;ratioP1;P1;durP2;ratioP2;P2;SDS_P1;SDS_P2;PMS_P1;PMS_P2;Temp;Humidity;BMP_temperature;BMP_pressure;BME280_temperature;BME280_humidity;BME280_pressure;Samples;Min_cycle;Max_cycle;Signal;HPM_P1;HPM_P2
2022/03/07 00:05:11;;;;;;;;;;;;;;;20.85;44.72;100536.00;20617708;28;98162;-78
2022/03/07 00:15:11;;;;;;;;;;;;;;;20.82;44.69;100539.69;20605302;27;97920;-79
2022/03/07 00:25:12;;;;;;;;;;;;;;;20.76;44.59;100541.00;20624056;28;99521;-78
2022/03/07 00:35:12;;;;;;;;;;;;;;;20.74;44.40;100563.97;20619857;28;99310;-79
2022/03/07 00:45:13;;;;;;;;;;;;;;;20.73;44.38;100571.97;20640191;28;98132;-80
2022/03/07 00:55:13;;;;;;;;;;;;;;;20.72;43.74;100563.22;20662784;27;98069;-80
2022/03/07 01:05:14;;;;;;;;;;;;;;;20.67;43.84;100561.84;20668448;27;97649;-79
2022/03/07 01:15:14;;;;;;;;;;;;;;;20.61;43.64;100557.88;20683572;27;98169;-80
2022/03/07 01:25:15;;;;;;;;;;;;;;;20.61;43.84;100558.69;20681150;27;100380;-79
2022/03/07 01:35:18;;;;;;;;;;;;;;;20.57;43.75;100544.09;20650629;27;98634;-79
2022/03/07 01:45:20;;;;;;;;;;;;;;;20.54;43.72;100546.94;20662887;27;98761;-80
2022/03/07 01:55:21;;;;;;;;;;;;;;;20.50;44.20;100542.84;20658796;28;98147;-80
2022/03/07 02:05:26;;;;;;;;;;;;;;;20.51;43.76;100543.69;20672410;27;99480;-80
2022/03/07 02:15:32;;;;;;;;;;;;;;;20.44;43.82;100546.75;20661668;28;101209;-79
2022/03/07 02:25:33;;;;;;;;;;;;;;;20.45;43.85;100542.34;20656360;28;99752;-79
2022/03/07 02:35:34;;;;;;;;;;;;;;;20.37;44.04;100532.38;20651732;28;97857;-80
2022/03/07 02:45:35;;;;;;;;;;;;;;;20.40;43.57;100539.22;20654643;27;98647;-78
2022/03/07 02:55:35;;;;;;;;;;;;;;;20.38;43.73;100536.69;20651444;28;99815;-79
2022/03/07 03:05:36;;;;;;;;;;;;;;;20.33;43.56;100551.94;20626340;28;100909;-80
2022/03/07 03:15:36;;;;;;;;;;;;;;;20.33;43.51;100556.38;20645254;27;98413;-79
2022/03/07 03:25:37;;;;;;;;;;;;;;;20.28;43.79;100561.97;20659491;28;100801;-80
2022/03/07 03:35:38;;;;;;;;;;;;;;;20.26;43.86;100569.97;20655177;27;101624;-78
2022/03/07 03:45:38;;;;;;;;;;;;;;;20.27;43.55;100576.88;20619375;28;97259;-78
2022/03/07 03:55:39;;;;;;;;;;;;;;;20.23;43.45;100578.06;20619981;28;97890;-77
2022/03/07 04:05:39;;;;;;;;;;;;;;;20.21;43.75;100579.94;20619821;28;98315;-78
2022/03/07 04:15:40;;;;;;;;;;;;;;;20.18;43.42;100572.28;20620490;27;97581;-78
2022/03/07 04:25:40;;;;;;;;;;;;;;;20.15;43.33;100573.34;20639018;28;98545;-78
2022/03/07 04:35:41;;;;;;;;;;;;;;;20.16;43.26;100576.81;20634504;27;100955;-78
2022/03/07 04:45:41;;;;;;;;;;;;;;;20.13;43.42;100577.03;20662999;27;98995;-79
2022/03/07 04:55:42;;;;;;;;;;;;;;;20.12;43.78;100576.19;20651868;27;100505;-80
2022/03/07 05:05:42;;;;;;;;;;;;;;;20.21;44.49;100563.34;20671405;27;100707;-81
2022/03/07 05:15:44;;;;;;;;;;;;;;;20.26;45.55;100566.47;20654523;28;99113;-79
2022/03/07 05:25:44;;;;;;;;;;;;;;;20.36;44.24;100567.53;20634859;27;98137;-77
2022/03/07 05:35:45;;;;;;;;;;;;;;;20.44;44.76;100578.31;20658346;28;98020;-77
2022/03/07 05:45:45;;;;;;;;;;;;;;;19.32;31.72;100578.94;20638767;28;100904;-83
2022/03/07 05:55:48;;;;;;;;;;;;;;;20.22;40.90;100583.44;20662866;28;97460;-78
2022/03/07 06:05:49;;;;;;;;;;;;;;;20.29;40.88;100576.81;20695599;27;97772;-80
2022/03/07 06:15:51;;;;;;;;;;;;;;;20.40;41.91;100584.75;20680575;28;97635;-80
2022/03/07 06:25:52;;;;;;;;;;;;;;;20.49;42.42;100601.66;20677394;27;98242;-79
2022/03/07 06:35:53;;;;;;;;;;;;;;;20.48;40.24;100606.09;20675268;27;100040;-80
2022/03/07 06:45:54;;;;;;;;;;;;;;;20.58;41.53;100600.16;20666708;27;98006;-80
2022/03/07 06:55:55;;;;;;;;;;;;;;;20.66;42.14;100608.38;20686059;28;97663;-79
2022/03/07 07:05:55;;;;;;;;;;;;;;;20.75;42.22;100612.16;20682492;28;100389;-77
2022/03/07 07:15:56;;;;;;;;;;;;;;;20.79;43.18;100609.19;20670189;28;97224;-80
2022/03/07 07:25:58;;;;;;;;;;;;;;;20.87;43.83;100603.38;20664695;28;97969;-79
2022/03/07 07:35:59;;;;;;;16.73;11.00;;;;;;;20.94;45.94;100627.47;20656429;28;101215;-84
2022/03/07 07:46:00;;;;;;;20.55;10.32;;;;;;;21.01;43.86;100623.44;20658991;28;97020;-80
2022/03/07 07:56:02;;;;;;;20.52;13.43;;;;;;;20.59;37.58;100639.53;20678002;27;99015;-76
2022/03/07 08:06:02;;;;;;;14.23;9.55;;;;;;;21.00;40.30;100666.50;20670742;28;99860;-79
2022/03/07 08:16:04;;;;;;;19.08;9.80;;;;;;;21.18;41.13;100671.38;20672931;27;98555;-79
2022/03/07 08:26:05;;;;;;;16.83;10.00;;;;;;;21.18;41.04;100672.22;20650887;28;97924;-78
2022/03/07 08:36:06;;;;;;;18.33;9.52;;;;;;;21.22;42.38;100651.78;20664961;27;101462;-77
2022/03/07 08:46:08;;;;;;;14.43;9.43;;;;;;;21.23;42.81;100632.41;20653118;28;99274;-77
2022/03/07 08:56:09;;;;;;;12.97;8.80;;;;;;;21.25;41.95;100641.88;20649510;28;98383;-77
2022/03/07 09:06:10;;;;;;;15.13;9.88;;;;;;;21.20;42.02;100653.69;20649379;28;98670;-77
2022/03/07 09:16:10;;;;;;;14.75;9.48;;;;;;;21.17;42.81;100646.03;20682560;27;97549;-78
2022/03/07 09:26:11;;;;;;;13.23;8.38;;;;;;;21.16;41.95;100637.25;20663309;27;97969;-78
2022/03/07 09:36:12;;;;;;;12.13;8.38;;;;;;;21.15;42.25;100640.00;20653014;28;99511;-78
2022/03/07 09:46:14;;;;;;;11.73;7.97;;;;;;;21.14;41.84;100639.19;20646274;28;100047;-78
2022/03/07 09:56:15;;;;;;;14.17;8.10;;;;;;;21.12;42.17;100635.81;20654331;28;100570;-78
2022/03/07 10:06:20;;;;;;;14.07;8.10;;;;;;;21.11;41.86;100637.59;20649215;28;99842;-79
2022/03/07 10:16:21;;;;;;;12.45;7.90;;;;;;;21.12;42.04;100633.19;20655387;27;100702;-77
2022/03/07 10:26:23;;;;;;;9.77;7.35;;;;;;;21.14;41.35;100630.44;20660774;28;98415;-80
2022/03/07 10:36:49;;;;;;;9.55;6.78;;;;;;;21.11;41.46;100623.59;20640505;28;98004;-78
2022/03/07 10:46:50;;;;;;;10.32;7.20;;;;;;;21.08;41.66;100622.03;20641085;27;97232;-78
2022/03/07 10:56:55;;;;;;;9.18;7.10;;;;;;;21.09;41.95;100607.94;20664022;28;97922;-82
2022/03/07 11:06:56;;;;;;;10.90;7.35;;;;;;;21.08;41.04;100587.81;20639076;28;97635;-80
2022/03/07 11:17:00;;;;;;;11.82;7.38;;;;;;;21.04;41.74;100573.16;20684783;28;98057;-81
2022/03/07 11:27:06;;;;;;;12.38;7.15;;;;;;;21.02;41.41;100559.31;20685480;28;97500;-81
2022/03/07 11:37:17;;;;;;;12.48;6.85;;;;;;;21.00;41.10;100548.03;20677818;28;97621;-81
2022/03/07 11:47:20;;;;;;;12.13;6.97;;;;;;;21.01;41.01;100530.47;20703010;28;97441;-81
2022/03/07 11:57:38;;;;;;;12.63;7.70;;;;;;;21.04;41.78;100523.16;20686542;28;97253;-80
2022/03/07 12:07:39;;;;;;;14.00;7.63;;;;;;;21.03;42.14;100524.13;20674669;27;97963;-80
2022/03/07 12:17:39;;;;;;;15.35;7.60;;;;;;;21.03;41.75;100515.38;20681392;28;97836;-80
2022/03/07 12:27:41;;;;;;;13.53;7.87;;;;;;;21.00;42.06;100512.97;20668196;28;97459;-80
2022/03/07 12:37:42;;;;;;;18.90;9.93;;;;;;;20.99;42.18;100509.50;20696762;28;97490;-80
2022/03/07 12:47:43;;;;;;;16.67;8.35;;;;;;;21.04;42.41;100517.06;20656717;27;100928;-80
2022/03/07 12:57:44;;;;;;;16.15;10.32;;;;;;;21.09;47.83;100517.53;20667340;27;98134;-78
2022/03/07 13:08:03;;;;;;;17.33;9.63;;;;;;;21.05;46.18;100516.94;20670199;27;97810;-78
2022/03/07 13:18:05;;;;;;;16.40;9.23;;;;;;;21.03;46.79;100518.00;20648813;27;96909;-78
2022/03/07 13:28:09;;;;;;;17.73;9.83;;;;;;;21.00;45.26;100523.50;20608829;28;98616;-81
2022/03/07 13:38:18;;;;;;;16.77;10.30;;;;;;;20.97;44.94;100523.72;20719886;28;99624;-79
2022/03/07 13:48:20;;;;;;;15.35;9.27;;;;;;;20.94;44.55;100530.06;20709421;27;99373;-80
2022/03/07 13:58:24;;;;;;;18.98;9.07;;;;;;;20.91;43.49;100536.41;20672858;28;97292;-81
2022/03/07 14:08:31;;;;;;;16.33;9.00;;;;;;;20.92;43.42;100532.81;20660601;27;98553;-82
2022/03/07 14:18:33;;;;;;;16.30;8.90;;;;;;;20.91;43.33;100528.50;20675322;27;97331;-84
2022/03/07 14:28:34;;;;;;;18.23;8.57;;;;;;;20.90;43.62;100526.81;20693301;27;98194;-82
2022/03/07 14:38:36;;;;;;;19.23;11.55;;;;;;;20.58;38.48;100526.50;20689367;27;98074;-81
2022/03/07 14:48:40;;;;;;;17.10;9.40;;;;;;;20.72;40.08;100521.13;20659095;28;101534;-80
2022/03/07 14:58:40;;;;;;;21.08;9.05;;;;;;;20.73;41.85;100525.44;20624077;28;97586;-79
2022/03/07 15:08:40;;;;;;;16.92;9.48;;;;;;;20.72;41.81;100528.19;20618255;28;99535;-78
2022/03/07 15:18:41;;;;;;;18.80;9.55;;;;;;;20.73;42.15;100528.06;20629245;28;97066;-76
2022/03/07 15:28:41;;;;;;;17.77;9.68;;;;;;;20.78;41.87;100525.09;20628000;28;98907;-78
2022/03/07 15:38:42;;;;;;;18.73;9.15;;;;;;;20.76;42.37;100533.13;20655043;27;97540;-79
2022/03/07 15:48:42;;;;;;;15.43;9.25;;;;;;;20.76;42.69;100545.41;20656204;28;98491;-80
2022/03/07 15:58:45;;;;;;;13.10;8.43;;;;;;;20.78;42.43;100546.16;20648240;28;100368;-79
2022/03/07 16:08:45;;;;;;;15.27;8.20;;;;;;;20.81;42.29;100560.88;20658615;28;99244;-80
2022/03/07 16:18:45;;;;;;;18.02;9.05;;;;;;;20.79;42.55;100567.09;20660973;27;98650;-78
2022/03/07 16:28:46;;;;;;;18.15;9.38;;;;;;;20.71;39.98;100572.03;20665937;27;97608;-79
2022/03/07 16:38:46;;;;;;;15.70;9.25;;;;;;;20.81;40.92;100585.38;20665433;27;97384;-79
2022/03/07 16:48:47;;;;;;;14.35;8.50;;;;;;;20.84;40.82;100603.59;20653369;28;100986;-78
2022/03/07 16:58:49;;;;;;;14.45;7.53;;;;;;;20.91;41.28;100612.72;20646637;28;97640;-78
2022/03/07 17:08:49;;;;;;;15.25;8.20;;;;;;;20.96;41.47;100644.00;20644662;27;100038;-77
2022/03/07 17:18:50;;;;;;;13.20;7.90;;;;;;;21.05;42.97;100661.75;20655815;28;99518;-78
2022/03/07 17:28:51;;;;;;;13.13;8.57;;;;;;;21.15;43.67;100679.50;20639069;27;97609;-78
2022/03/07 17:38:52;;;;;;;71.03;44.27;;;;;;;21.30;45.99;100674.91;20672982;27;97609;-79
2022/03/07 17:48:54;;;;;;;72.57;44.35;;;;;;;21.51;46.72;100680.41;20708805;27;98893;-79
2022/03/07 17:58:54;;;;;;;67.45;44.28;;;;;;;21.66;46.94;100679.28;20662123;28;99576;-78
2022/03/07 18:08:57;;;;;;;65.55;41.90;;;;;;;21.67;45.37;100693.31;20676048;27;97132;-78
2022/03/07 18:19:00;;;;;;;63.05;39.13;;;;;;;21.63;44.22;100695.34;20689793;27;97651;-80
2022/03/07 18:29:03;;;;;;;57.50;38.03;;;;;;;21.66;43.86;100712.72;20689986;28;98897;-80
2022/03/07 18:39:03;;;;;;;38.53;23.80;;;;;;;21.24;38.50;100732.34;20661250;28;98063;-77
2022/03/07 18:49:04;;;;;;;41.07;24.97;;;;;;;21.31;40.23;100737.19;20641603;27;97751;-77
2022/03/07 18:59:07;;;;;;;37.95;23.60;;;;;;;21.50;40.13;100734.88;20641833;28;98373;-78
2022/03/07 19:09:07;;;;;;;34.45;21.67;;;;;;;21.51;40.49;100741.84;20648634;28;98070;-78
2022/03/07 19:19:08;;;;;;;36.20;21.33;;;;;;;21.56;42.25;100757.31;20668100;28;97578;-76
2022/03/07 19:29:09;;;;;;;34.85;19.75;;;;;;;21.43;41.73;100767.91;20638474;28;97945;-76
2022/03/07 19:39:10;;;;;;;34.33;19.73;;;;;;;21.34;42.33;100766.78;20631809;28;98753;-76
2022/03/07 19:49:11;;;;;;;30.23;18.77;;;;;;;21.30;42.30;100773.22;20672040;28;97297;-76
2022/03/07 19:59:11;;;;;;;30.88;18.17;;;;;;;21.27;42.71;100771.63;20683918;28;98104;-77
2022/03/07 20:09:12;;;;;;;25.57;16.67;;;;;;;21.22;42.86;100779.03;20674145;28;97450;-76
2022/03/07 20:19:13;;;;;;;26.13;16.38;;;;;;;21.17;43.30;100778.50;20675897;28;98016;-76
2022/03/07 20:29:13;;;;;;;23.65;15.73;;;;;;;21.14;43.32;100780.53;20683544;28;100336;-76
2022/03/07 20:39:14;;;;;;;29.50;15.43;;;;;;;21.09;43.52;100763.28;20691046;28;98580;-77
2022/03/07 20:49:15;;;;;;;22.03;14.00;;;;;;;21.02;44.38;100754.13;20679175;27;98325;-78
2022/03/07 20:59:17;;;;;;;22.15;14.60;;;;;;;20.99;44.44;100769.28;20673517;28;98288;-76
2022/03/07 21:09:18;;;;;;;21.38;14.43;;;;;;;20.95;44.44;100782.66;20660394;27;99581;-77
2022/03/07 21:19:19;;;;;;;21.70;13.35;;;;;;;20.92;44.76;100777.63;20648570;27;97093;-77
2022/03/07 21:29:20;;;;;;;19.77;13.17;;;;;;;20.89;44.50;100798.06;20657394;28;98268;-77
2022/03/07 21:39:20;;;;;;;18.95;12.75;;;;;;;20.83;44.47;100795.84;20616847;27;101459;-77
2022/03/07 21:49:22;;;;;;;18.67;12.38;;;;;;;20.79;44.75;100792.59;20588605;27;97787;-77
2022/03/07 21:59:24;;;;;;;19.27;12.20;;;;;;;20.73;44.71;100793.00;20634529;28;98340;-77
2022/03/07 22:09:24;;;;;;;16.70;11.43;;;;;;;20.68;44.63;100798.56;20627312;27;101411;-77
2022/03/07 22:19:24;;;;;;;16.33;11.35;;;;;;;20.63;44.54;100796.25;20642457;28;98844;-77
2022/03/07 22:29:25;;;;;;;17.90;11.82;;;;;;;20.58;44.62;100785.19;20616248;27;98466;-77
2022/03/07 22:39:25;;;;;;;16.00;11.52;;;;;;;20.55;44.52;100777.50;20623835;28;99686;-77
2022/03/07 22:49:26;;;;;;;16.13;10.85;;;;;;;20.49;44.36;100775.28;20634861;28;98410;-76
2022/03/07 22:59:26;;;;;;;15.52;11.18;;;;;;;20.47;44.35;100770.13;20634102;28;99908;-77
2022/03/07 23:09:27;;;;;;;16.38;11.07;;;;;;;20.44;44.41;100759.81;20634536;28;98989;-77
2022/03/07 23:19:27;;;;;;;13.40;10.20;;;;;;;20.40;44.32;100779.41;20631181;28;99115;-77
2022/03/07 23:29:28;;;;;;;14.32;10.27;;;;;;;20.38;44.19;100781.28;20629904;28;100248;-76
2022/03/07 23:39:29;;;;;;;15.10;10.35;;;;;;;20.34;44.31;100769.28;20630164;28;97716;-77
2022/03/07 23:49:30;;;;;;;13.05;9.80;;;;;;;20.34;44.11;100792.13;20647528;28;98024;-77
2022/03/07 23:59:31;;;;;;;13.85;9.07;;;;;;;20.29;44.35;100797.69;20628541;28;98598;-77
